createdAt,value
2017-08-20T00:00:28.703Z,0
2017-08-20T00:01:30.711Z,0
2017-08-20T00:02:32.666Z,0
2017-08-20T00:03:34.959Z,0
2017-08-20T00:04:37.218Z,0
2017-08-20T00:05:39.194Z,0
2017-08-20T00:06:41.520Z,0
2017-08-20T00:07:43.796Z,0
2017-08-20T00:08:46.021Z,0
2017-08-20T00:09:47.449Z,0
2017-08-20T00:10:49.655Z,0
2017-08-20T00:11:51.825Z,0
2017-08-20T00:12:53.819Z,0
2017-08-20T00:13:56.165Z,0
2017-08-20T00:14:58.368Z,0
2017-08-20T00:16:00.412Z,0
2017-08-20T00:17:02.395Z,0
2017-08-20T00:18:04.809Z,0
2017-08-20T00:19:06.238Z,0
2017-08-20T00:20:08.657Z,0
2017-08-20T00:21:10.837Z,0
2017-08-20T00:22:12.900Z,0
2017-08-20T00:23:14.871Z,0
2017-08-20T00:24:17.283Z,0
2017-08-20T00:25:18.717Z,0
2017-08-20T00:26:20.141Z,0
2017-08-20T00:27:21.561Z,0
2017-08-20T00:28:22.993Z,0
2017-08-20T00:29:24.406Z,0
2017-08-20T00:30:25.832Z,0
2017-08-20T00:31:27.255Z,0
2017-08-20T00:32:28.719Z,0
2017-08-20T00:33:30.149Z,0
2017-08-20T00:34:31.579Z,0
2017-08-20T00:35:32.992Z,0
2017-08-20T00:36:34.566Z,0
2017-08-20T00:37:35.991Z,0
2017-08-20T00:38:37.407Z,0
2017-08-20T00:39:38.832Z,0
2017-08-20T00:40:40.254Z,0
2017-08-20T00:41:41.686Z,0
2017-08-20T00:42:43.119Z,0
2017-08-20T00:43:44.539Z,0
2017-08-20T00:44:45.965Z,0
2017-08-20T00:45:47.389Z,0
2017-08-20T00:46:48.810Z,0
2017-08-20T00:47:50.238Z,0
2017-08-20T00:48:51.670Z,0
2017-08-20T00:49:53.110Z,0
2017-08-20T00:50:54.528Z,0
2017-08-20T00:51:55.949Z,0
2017-08-20T00:52:57.367Z,0
2017-08-20T00:53:58.794Z,0
2017-08-20T00:55:00.213Z,0
2017-08-20T00:56:01.642Z,0
2017-08-20T00:57:03.066Z,0
2017-08-20T00:58:04.491Z,0
2017-08-20T00:59:05.911Z,0
2017-08-20T01:00:07.346Z,0
2017-08-20T01:01:08.769Z,0
2017-08-20T01:02:10.193Z,0
2017-08-20T01:03:11.626Z,0
2017-08-20T01:04:13.045Z,0
2017-08-20T01:05:14.471Z,0
2017-08-20T01:06:15.890Z,0
2017-08-20T01:07:17.314Z,0
2017-08-20T01:08:18.739Z,0
2017-08-20T01:09:20.166Z,0
2017-08-20T01:10:21.601Z,0
2017-08-20T01:11:23.023Z,0
2017-08-20T01:12:24.448Z,0
2017-08-20T01:13:25.871Z,0
2017-08-20T01:14:27.288Z,0
2017-08-20T01:15:28.705Z,0
2017-08-20T01:16:30.129Z,0
2017-08-20T01:17:31.549Z,0
2017-08-20T01:18:32.967Z,0
2017-08-20T01:19:34.414Z,0
2017-08-20T01:20:35.828Z,0
2017-08-20T01:21:37.254Z,0
2017-08-20T01:22:38.679Z,0
2017-08-20T01:23:40.138Z,0
2017-08-20T01:24:41.559Z,0
2017-08-20T01:25:42.978Z,0
2017-08-20T01:26:44.397Z,0
2017-08-20T01:27:45.823Z,0
2017-08-20T01:28:47.246Z,0
2017-08-20T01:29:48.680Z,0
2017-08-20T01:30:50.100Z,0
2017-08-20T01:31:51.526Z,0
2017-08-20T01:32:52.942Z,0
2017-08-20T01:33:54.371Z,0
2017-08-20T01:34:55.788Z,0
2017-08-20T01:35:57.301Z,0
2017-08-20T01:36:58.737Z,0
2017-08-20T01:38:00.169Z,0
2017-08-20T01:39:01.588Z,0
2017-08-20T01:40:03.020Z,0
2017-08-20T01:41:04.436Z,0
2017-08-20T01:42:05.868Z,0
2017-08-20T01:43:07.293Z,0
2017-08-20T01:44:08.735Z,0
2017-08-20T01:45:10.155Z,0
2017-08-20T01:46:11.583Z,0
2017-08-20T01:47:13.005Z,0
2017-08-20T01:48:14.435Z,0
2017-08-20T01:49:15.861Z,0
2017-08-20T01:50:17.285Z,0
2017-08-20T01:51:18.711Z,0
2017-08-20T01:52:20.129Z,0
2017-08-20T01:53:21.547Z,0
2017-08-20T01:54:22.974Z,0
2017-08-20T01:55:24.398Z,0
2017-08-20T01:56:25.824Z,0
2017-08-20T01:57:27.246Z,0
2017-08-20T01:58:28.679Z,0
2017-08-20T01:59:30.102Z,0
2017-08-20T02:00:31.519Z,0
2017-08-20T02:01:32.948Z,0
2017-08-20T02:02:34.376Z,0
2017-08-20T02:03:35.801Z,0
2017-08-20T02:04:37.218Z,0
2017-08-20T02:05:38.641Z,0
2017-08-20T02:06:40.069Z,0
2017-08-20T02:07:41.492Z,0
2017-08-20T02:08:42.920Z,0
2017-08-20T02:09:44.350Z,0
2017-08-20T02:10:45.777Z,0
2017-08-20T02:11:47.198Z,0
2017-08-20T02:12:48.621Z,0
2017-08-20T02:13:50.053Z,0
2017-08-20T02:14:51.481Z,0
2017-08-20T02:15:52.910Z,0
2017-08-20T02:16:54.332Z,0
2017-08-20T02:17:55.748Z,0
2017-08-20T02:18:57.180Z,0
2017-08-20T02:19:58.597Z,0
2017-08-20T02:21:00.017Z,0
2017-08-20T02:22:01.438Z,0
2017-08-20T02:23:02.858Z,0
2017-08-20T02:24:04.282Z,0
2017-08-20T02:25:05.700Z,0
2017-08-20T02:26:07.122Z,0
2017-08-20T02:27:08.542Z,0
2017-08-20T02:28:09.978Z,0
2017-08-20T02:29:11.396Z,0
2017-08-20T02:30:12.825Z,0
2017-08-20T02:31:14.266Z,0
2017-08-20T02:32:15.667Z,0
2017-08-20T02:33:17.096Z,0
2017-08-20T02:34:18.550Z,0
2017-08-20T02:35:19.974Z,0
2017-08-20T02:36:21.398Z,0
2017-08-20T02:37:22.817Z,0
2017-08-20T02:38:24.240Z,0
2017-08-20T02:39:25.663Z,0
2017-08-20T02:40:27.092Z,0
2017-08-20T02:41:28.508Z,0
2017-08-20T02:42:29.937Z,0
2017-08-20T02:43:31.363Z,0
2017-08-20T02:44:32.785Z,0
2017-08-20T02:45:34.207Z,0
2017-08-20T02:46:35.630Z,0
2017-08-20T02:47:37.051Z,0
2017-08-20T02:48:38.476Z,0
2017-08-20T02:49:39.905Z,0
2017-08-20T02:50:41.330Z,0
2017-08-20T02:51:42.755Z,0
2017-08-20T02:52:44.178Z,0
2017-08-20T02:53:45.603Z,0
2017-08-20T02:54:47.020Z,0
2017-08-20T02:55:48.451Z,0
2017-08-20T02:56:49.873Z,0
2017-08-20T02:57:51.303Z,0
2017-08-20T02:58:52.720Z,0
2017-08-20T02:59:54.165Z,0
2017-08-20T03:00:55.567Z,0
2017-08-20T03:01:56.996Z,0
2017-08-20T03:02:58.417Z,0
2017-08-20T03:03:59.839Z,0
2017-08-20T03:05:01.259Z,0
2017-08-20T03:06:02.690Z,0
2017-08-20T03:07:04.114Z,0
2017-08-20T03:08:05.529Z,0
2017-08-20T03:09:06.965Z,0
2017-08-20T03:10:08.388Z,0
2017-08-20T03:11:09.813Z,0
2017-08-20T03:12:11.244Z,0
2017-08-20T03:13:12.676Z,0
2017-08-20T03:14:14.100Z,0
2017-08-20T03:15:15.521Z,0
2017-08-20T03:16:16.956Z,0
2017-08-20T03:17:18.373Z,0
2017-08-20T03:18:19.795Z,0
2017-08-20T03:19:21.217Z,0
2017-08-20T03:20:22.641Z,0
2017-08-20T03:21:24.058Z,0
2017-08-20T03:22:25.480Z,0
2017-08-20T03:23:26.903Z,0
2017-08-20T03:24:28.330Z,0
2017-08-20T03:25:29.758Z,0
2017-08-20T03:26:31.177Z,0
2017-08-20T03:27:32.654Z,0
2017-08-20T03:28:34.075Z,0
2017-08-20T03:29:35.504Z,0
2017-08-20T03:30:36.932Z,0
2017-08-20T03:31:38.353Z,0
2017-08-20T03:32:39.778Z,0
2017-08-20T03:33:41.201Z,0
2017-08-20T03:34:42.624Z,0
2017-08-20T03:35:44.047Z,0
2017-08-20T03:36:45.467Z,0
2017-08-20T03:37:46.891Z,0
2017-08-20T03:38:48.312Z,0
2017-08-20T03:39:49.730Z,0
2017-08-20T03:40:51.151Z,0
2017-08-20T03:41:52.571Z,0
2017-08-20T03:42:54.004Z,0
2017-08-20T03:43:55.431Z,0
2017-08-20T03:44:56.850Z,0
2017-08-20T03:45:58.273Z,0
2017-08-20T03:46:59.695Z,0
2017-08-20T03:48:01.122Z,0
2017-08-20T03:49:02.543Z,0
2017-08-20T03:50:03.969Z,0
2017-08-20T03:51:05.386Z,0
2017-08-20T03:52:06.809Z,0
2017-08-20T03:53:08.227Z,4
2017-08-20T03:54:09.678Z,4
2017-08-20T03:55:11.094Z,4
2017-08-20T03:56:12.519Z,4
2017-08-20T03:57:13.947Z,0
2017-08-20T03:58:15.369Z,0
2017-08-20T03:59:16.792Z,0
2017-08-20T04:00:18.212Z,0
2017-08-20T04:01:19.640Z,0
2017-08-20T04:02:21.058Z,0
2017-08-20T04:03:22.493Z,4
2017-08-20T04:04:23.912Z,0
2017-08-20T04:05:25.340Z,0
2017-08-20T04:06:26.758Z,4
2017-08-20T04:07:28.180Z,4
2017-08-20T04:08:29.617Z,4
2017-08-20T04:09:31.035Z,4
2017-08-20T04:10:32.459Z,8
2017-08-20T04:11:33.875Z,4
2017-08-20T04:12:35.313Z,4
2017-08-20T04:13:36.739Z,8
2017-08-20T04:14:38.164Z,12
2017-08-20T04:15:39.587Z,12
2017-08-20T04:16:41.011Z,12
2017-08-20T04:17:42.442Z,12
2017-08-20T04:18:43.864Z,16
2017-08-20T04:19:45.276Z,16
2017-08-20T04:20:46.698Z,20
2017-08-20T04:21:48.131Z,20
2017-08-20T04:22:49.557Z,24
2017-08-20T04:23:50.984Z,28
2017-08-20T04:24:52.412Z,28
2017-08-20T04:25:53.830Z,32
2017-08-20T04:26:55.250Z,36
2017-08-20T04:27:56.682Z,36
2017-08-20T04:28:58.110Z,40
2017-08-20T04:29:59.532Z,44
2017-08-20T04:31:00.950Z,48
2017-08-20T04:32:02.374Z,48
2017-08-20T04:33:03.797Z,56
2017-08-20T04:34:05.224Z,56
2017-08-20T04:35:06.653Z,64
2017-08-20T04:36:08.083Z,68
2017-08-20T04:37:09.505Z,72
2017-08-20T04:38:10.934Z,80
2017-08-20T04:39:12.360Z,84
2017-08-20T04:40:13.789Z,88
2017-08-20T04:41:15.209Z,96
2017-08-20T04:42:16.627Z,100
2017-08-20T04:43:18.055Z,104
2017-08-20T04:44:19.483Z,112
2017-08-20T04:45:20.902Z,112
2017-08-20T04:46:22.333Z,116
2017-08-20T04:47:23.748Z,120
2017-08-20T04:48:25.177Z,128
2017-08-20T04:49:26.597Z,136
2017-08-20T04:50:28.021Z,136
2017-08-20T04:51:29.448Z,144
2017-08-20T04:52:30.876Z,152
2017-08-20T04:53:32.300Z,160
2017-08-20T04:54:33.735Z,168
2017-08-20T04:55:35.165Z,168
2017-08-20T04:56:36.592Z,168
2017-08-20T04:57:38.017Z,180
2017-08-20T04:58:39.444Z,180
2017-08-20T04:59:40.870Z,192
2017-08-20T05:00:42.291Z,200
2017-08-20T05:01:43.728Z,216
2017-08-20T05:02:45.153Z,224
2017-08-20T05:03:46.575Z,236
2017-08-20T05:04:48.001Z,248
2017-08-20T05:05:49.433Z,236
2017-08-20T05:06:50.860Z,236
2017-08-20T05:07:52.284Z,240
2017-08-20T05:08:53.712Z,244
2017-08-20T05:09:55.145Z,260
2017-08-20T05:10:56.581Z,280
2017-08-20T05:11:58.008Z,300
2017-08-20T05:12:59.438Z,328
2017-08-20T05:14:00.865Z,364
2017-08-20T05:15:02.287Z,420
2017-08-20T05:16:03.714Z,400
2017-08-20T05:17:05.136Z,360
2017-08-20T05:18:06.561Z,356
2017-08-20T05:19:07.986Z,352
2017-08-20T05:20:09.414Z,352
2017-08-20T05:21:10.832Z,352
2017-08-20T05:22:12.251Z,380
2017-08-20T05:23:13.688Z,412
2017-08-20T05:24:15.116Z,412
2017-08-20T05:25:16.542Z,392
2017-08-20T05:26:17.966Z,364
2017-08-20T05:27:19.391Z,360
2017-08-20T05:28:20.818Z,356
2017-08-20T05:29:22.239Z,384
2017-08-20T05:30:23.669Z,384
2017-08-20T05:31:25.094Z,392
2017-08-20T05:32:26.527Z,404
2017-08-20T05:33:27.956Z,412
2017-08-20T05:34:29.384Z,428
2017-08-20T05:35:30.817Z,424
2017-08-20T05:36:32.241Z,460
2017-08-20T05:37:33.673Z,484
2017-08-20T05:38:35.096Z,500
2017-08-20T05:39:36.527Z,512
2017-08-20T05:40:37.950Z,496
2017-08-20T05:41:39.375Z,468
2017-08-20T05:42:40.791Z,464
2017-08-20T05:43:42.223Z,444
2017-08-20T05:44:43.652Z,428
2017-08-20T05:45:45.075Z,448
2017-08-20T05:46:46.504Z,464
2017-08-20T05:47:47.925Z,492
2017-08-20T05:48:49.352Z,516
2017-08-20T05:49:50.779Z,524
2017-08-20T05:50:52.200Z,504
2017-08-20T05:51:53.627Z,496
2017-08-20T05:52:55.055Z,488
2017-08-20T05:53:56.479Z,464
2017-08-20T05:54:57.907Z,436
2017-08-20T05:55:59.340Z,420
2017-08-20T05:57:00.769Z,408
2017-08-20T05:58:02.195Z,380
2017-08-20T05:59:03.619Z,384
2017-08-20T06:00:05.064Z,420
2017-08-20T06:01:06.490Z,440
2017-08-20T06:02:07.918Z,436
2017-08-20T06:03:09.354Z,428
2017-08-20T06:04:10.786Z,428
2017-08-20T06:05:12.211Z,428
2017-08-20T06:06:13.644Z,428
2017-08-20T06:07:15.112Z,440
2017-08-20T06:08:16.541Z,440
2017-08-20T06:09:17.973Z,456
2017-08-20T06:10:19.403Z,472
2017-08-20T06:11:20.838Z,472
2017-08-20T06:12:22.261Z,480
2017-08-20T06:13:23.683Z,464
2017-08-20T06:14:25.120Z,452
2017-08-20T06:15:26.537Z,432
2017-08-20T06:16:27.966Z,432
2017-08-20T06:17:29.390Z,400
2017-08-20T06:18:30.822Z,380
2017-08-20T06:19:32.246Z,352
2017-08-20T06:20:33.681Z,336
2017-08-20T06:21:35.130Z,336
2017-08-20T06:22:36.620Z,320
2017-08-20T06:23:38.045Z,296
2017-08-20T06:24:39.479Z,288
2017-08-20T06:25:40.907Z,296
2017-08-20T06:26:42.335Z,304
2017-08-20T06:27:43.765Z,312
2017-08-20T06:28:45.191Z,364
2017-08-20T06:29:46.617Z,416
2017-08-20T06:30:48.039Z,504
2017-08-20T06:31:49.470Z,548
2017-08-20T06:32:51.043Z,624
2017-08-20T06:33:52.462Z,660
2017-08-20T06:34:53.891Z,676
2017-08-20T06:35:55.312Z,668
2017-08-20T06:36:56.742Z,664
2017-08-20T06:37:58.164Z,624
2017-08-20T06:38:59.586Z,616
2017-08-20T06:40:01.032Z,628
2017-08-20T06:41:02.459Z,700
2017-08-20T06:42:03.884Z,796
2017-08-20T06:43:05.308Z,888
2017-08-20T06:44:06.739Z,880
2017-08-20T06:45:08.188Z,888
2017-08-20T06:46:09.614Z,904
2017-08-20T06:47:11.077Z,912
2017-08-20T06:48:12.474Z,932
2017-08-20T06:49:13.900Z,960
2017-08-20T06:50:15.328Z,896
2017-08-20T06:51:16.757Z,932
2017-08-20T06:52:18.191Z,988
2017-08-20T06:53:19.611Z,1080
2017-08-20T06:54:21.041Z,1000
2017-08-20T06:55:22.468Z,940
2017-08-20T06:56:23.887Z,924
2017-08-20T06:57:25.310Z,900
2017-08-20T06:58:26.746Z,916
2017-08-20T06:59:28.172Z,956
2017-08-20T07:00:29.603Z,996
2017-08-20T07:01:31.029Z,956
2017-08-20T07:02:32.461Z,932
2017-08-20T07:03:34.369Z,892
2017-08-20T07:04:35.258Z,824
2017-08-20T07:05:36.688Z,568
2017-08-20T07:06:38.110Z,736
2017-08-20T07:07:39.537Z,760
2017-08-20T07:08:40.973Z,740
2017-08-20T07:09:42.403Z,752
2017-08-20T07:10:43.833Z,704
2017-08-20T07:11:45.255Z,756
2017-08-20T07:12:46.683Z,820
2017-08-20T07:13:48.107Z,944
2017-08-20T07:14:49.541Z,1016
2017-08-20T07:15:50.965Z,1060
2017-08-20T07:16:52.388Z,1068
2017-08-20T07:17:53.812Z,1080
2017-08-20T07:18:55.243Z,1096
2017-08-20T07:19:56.674Z,1096
2017-08-20T07:20:58.102Z,1144
2017-08-20T07:21:59.531Z,1168
2017-08-20T07:23:00.959Z,1176
2017-08-20T07:24:02.407Z,1176
2017-08-20T07:25:03.841Z,1196
2017-08-20T07:26:05.272Z,1136
2017-08-20T07:27:06.706Z,1168
2017-08-20T07:28:08.128Z,1184
2017-08-20T07:29:09.551Z,1140
2017-08-20T07:30:10.980Z,1132
2017-08-20T07:31:12.413Z,1092
2017-08-20T07:32:13.854Z,1096
2017-08-20T07:33:15.284Z,1044
2017-08-20T07:34:16.716Z,1032
2017-08-20T07:35:18.145Z,972
2017-08-20T07:36:19.571Z,928
2017-08-20T07:37:21.002Z,920
2017-08-20T07:38:22.425Z,940
2017-08-20T07:39:23.853Z,920
2017-08-20T07:40:25.281Z,912
2017-08-20T07:41:26.707Z,1000
2017-08-20T07:42:28.137Z,908
2017-08-20T07:43:29.564Z,940
2017-08-20T07:44:30.993Z,924
2017-08-20T07:45:32.416Z,944
2017-08-20T07:46:33.838Z,940
2017-08-20T07:47:35.262Z,928
2017-08-20T07:48:36.691Z,1040
2017-08-20T07:49:38.127Z,944
2017-08-20T07:50:39.552Z,972
2017-08-20T07:51:40.985Z,984
2017-08-20T07:52:42.421Z,944
2017-08-20T07:53:43.853Z,944
2017-08-20T07:54:45.273Z,908
2017-08-20T07:55:46.695Z,876
2017-08-20T07:56:48.120Z,944
2017-08-20T07:57:49.544Z,900
2017-08-20T07:58:50.966Z,912
2017-08-20T07:59:52.406Z,1028
2017-08-20T08:00:53.831Z,1064
2017-08-20T08:01:55.269Z,1076
2017-08-20T08:02:56.703Z,1032
2017-08-20T08:03:58.137Z,1084
2017-08-20T08:04:59.561Z,1032
2017-08-20T08:06:00.992Z,868
2017-08-20T08:07:02.428Z,1148
2017-08-20T08:08:03.853Z,608
2017-08-20T08:09:05.288Z,1044
2017-08-20T08:10:06.716Z,908
2017-08-20T08:11:08.141Z,1004
2017-08-20T08:12:09.564Z,1024
2017-08-20T08:13:10.993Z,1052
2017-08-20T08:14:12.425Z,1112
2017-08-20T08:15:13.868Z,1216
2017-08-20T08:16:15.290Z,1336
2017-08-20T08:17:16.719Z,1448
2017-08-20T08:18:18.167Z,1544
2017-08-20T08:19:19.592Z,1548
2017-08-20T08:20:21.020Z,1348
2017-08-20T08:21:22.459Z,1376
2017-08-20T08:22:23.890Z,1616
2017-08-20T08:23:25.322Z,1484
2017-08-20T08:24:26.751Z,1712
2017-08-20T08:25:28.183Z,1668
2017-08-20T08:26:29.611Z,1304
2017-08-20T08:27:31.049Z,2072
2017-08-20T08:28:32.481Z,2188
2017-08-20T08:29:33.908Z,2040
2017-08-20T08:30:35.331Z,1560
2017-08-20T08:31:36.760Z,1288
2017-08-20T08:32:38.201Z,1060
2017-08-20T08:33:39.631Z,1100
2017-08-20T08:34:41.067Z,1180
2017-08-20T08:35:42.494Z,1376
2017-08-20T08:36:43.927Z,1824
2017-08-20T08:37:45.359Z,1800
2017-08-20T08:38:46.819Z,1548
2017-08-20T08:39:48.259Z,1592
2017-08-20T08:40:49.688Z,1980
2017-08-20T08:41:51.121Z,2004
2017-08-20T08:42:52.642Z,1980
2017-08-20T08:43:54.075Z,1900
2017-08-20T08:44:55.500Z,1956
2017-08-20T08:45:56.927Z,1864
2017-08-20T08:46:58.366Z,1964
2017-08-20T08:47:59.792Z,1996
2017-08-20T08:49:01.244Z,2004
2017-08-20T08:50:02.716Z,2020
2017-08-20T08:51:04.141Z,2056
2017-08-20T08:52:05.572Z,1896
2017-08-20T08:53:07.063Z,1968
2017-08-20T08:54:08.500Z,1820
2017-08-20T08:55:09.945Z,1868
2017-08-20T08:56:11.374Z,1776
2017-08-20T08:57:12.814Z,1892
2017-08-20T08:58:14.238Z,1816
2017-08-20T08:59:15.673Z,1656
2017-08-20T09:00:17.104Z,1556
2017-08-20T09:01:18.533Z,1844
2017-08-20T09:02:19.967Z,2104
2017-08-20T09:03:21.404Z,2016
2017-08-20T09:04:22.856Z,1596
2017-08-20T09:05:24.260Z,1536
2017-08-20T09:06:25.699Z,1688
2017-08-20T09:07:27.135Z,1516
2017-08-20T09:08:28.562Z,2400
2017-08-20T09:09:29.997Z,2236
2017-08-20T09:10:31.450Z,1616
2017-08-20T09:11:32.863Z,1648
2017-08-20T09:12:34.292Z,1668
2017-08-20T09:13:35.745Z,1852
2017-08-20T09:14:37.153Z,1828
2017-08-20T09:15:38.585Z,2060
2017-08-20T09:16:40.019Z,1532
2017-08-20T09:17:41.454Z,2124
2017-08-20T09:18:42.883Z,1760
2017-08-20T09:19:44.317Z,1924
2017-08-20T09:20:45.795Z,1900
2017-08-20T09:21:47.229Z,1948
2017-08-20T09:22:48.665Z,2024
2017-08-20T09:23:50.095Z,2060
2017-08-20T09:24:51.533Z,1792
2017-08-20T09:25:52.962Z,1964
2017-08-20T09:26:54.393Z,1880
2017-08-20T09:27:55.841Z,2024
2017-08-20T09:28:57.274Z,2088
2017-08-20T09:29:58.704Z,2096
2017-08-20T09:31:00.143Z,2144
2017-08-20T09:32:01.571Z,2168
2017-08-20T09:33:03.014Z,1988
2017-08-20T09:34:04.441Z,2120
2017-08-20T09:35:05.873Z,2272
2017-08-20T09:36:07.461Z,2264
2017-08-20T09:37:08.896Z,2092
2017-08-20T09:38:10.335Z,2232
2017-08-20T09:39:11.763Z,2532
2017-08-20T09:40:13.195Z,2684
2017-08-20T09:41:14.640Z,2724
2017-08-20T09:42:16.068Z,2876
2017-08-20T09:43:17.509Z,2476
2017-08-20T09:44:18.935Z,2536
2017-08-20T09:45:20.386Z,1948
2017-08-20T09:46:21.820Z,2016
2017-08-20T09:47:23.256Z,2192
2017-08-20T09:48:24.690Z,1656
2017-08-20T09:49:26.125Z,1560
2017-08-20T09:50:27.556Z,1820
2017-08-20T09:51:28.994Z,2068
2017-08-20T09:52:30.424Z,2364
2017-08-20T09:53:31.857Z,2444
2017-08-20T09:54:33.288Z,2540
2017-08-20T09:55:34.714Z,2392
2017-08-20T09:56:36.225Z,2192
2017-08-20T09:57:38.287Z,1804
2017-08-20T09:58:39.723Z,2492
2017-08-20T09:59:41.152Z,2644
2017-08-20T10:00:42.591Z,2484
2017-08-20T10:01:44.031Z,2080
2017-08-20T10:02:45.457Z,1964
2017-08-20T10:03:46.895Z,1804
2017-08-20T10:04:48.339Z,1904
2017-08-20T10:05:49.773Z,1732
2017-08-20T10:06:51.215Z,1696
2017-08-20T10:07:52.653Z,1768
2017-08-20T10:08:54.083Z,1976
2017-08-20T10:09:55.514Z,1700
2017-08-20T10:10:56.947Z,1308
2017-08-20T10:11:58.387Z,1204
2017-08-20T10:12:59.817Z,1152
2017-08-20T10:14:01.246Z,1088
2017-08-20T10:15:02.676Z,944
2017-08-20T10:16:04.114Z,808
2017-08-20T10:17:05.544Z,700
2017-08-20T10:18:06.980Z,628
2017-08-20T10:19:08.410Z,728
2017-08-20T10:20:09.843Z,816
2017-08-20T10:21:11.390Z,932
2017-08-20T10:22:12.822Z,920
2017-08-20T10:23:14.251Z,944
2017-08-20T10:24:15.684Z,976
2017-08-20T10:25:17.111Z,952
2017-08-20T10:26:18.543Z,932
2017-08-20T10:27:19.979Z,948
2017-08-20T10:28:21.422Z,948
2017-08-20T10:29:22.893Z,964
2017-08-20T10:30:24.457Z,1120
2017-08-20T10:31:25.884Z,1128
2017-08-20T10:32:27.328Z,1244
2017-08-20T10:33:28.767Z,1084
2017-08-20T10:34:30.194Z,1176
2017-08-20T10:35:31.628Z,1508
2017-08-20T10:36:33.066Z,1608
2017-08-20T10:37:34.496Z,1764
2017-08-20T10:38:35.926Z,1848
2017-08-20T10:39:37.356Z,1968
2017-08-20T10:40:38.788Z,2140
2017-08-20T10:41:40.976Z,2196
2017-08-20T10:42:42.415Z,2496
2017-08-20T10:43:43.848Z,3136
2017-08-20T10:44:45.280Z,3096
2017-08-20T10:45:46.712Z,3288
2017-08-20T10:46:48.142Z,3380
2017-08-20T10:47:49.588Z,3868
2017-08-20T10:48:51.024Z,3792
2017-08-20T10:49:52.454Z,4032
2017-08-20T10:50:53.902Z,3568
2017-08-20T10:51:55.334Z,3628
2017-08-20T10:52:56.763Z,3592
2017-08-20T10:53:58.186Z,3536
2017-08-20T10:54:59.623Z,2984
2017-08-20T10:56:01.085Z,2672
2017-08-20T10:57:02.781Z,2436
2017-08-20T10:58:04.216Z,2044
2017-08-20T10:59:05.652Z,2128
2017-08-20T11:00:07.084Z,2536
2017-08-20T11:01:08.524Z,2704
2017-08-20T11:02:10.133Z,2732
2017-08-20T11:03:11.426Z,2620
2017-08-20T11:04:12.864Z,2640
2017-08-20T11:05:14.299Z,2952
2017-08-20T11:06:15.734Z,3036
2017-08-20T11:07:17.170Z,3080
2017-08-20T11:08:18.603Z,3076
2017-08-20T11:09:20.038Z,3256
2017-08-20T11:10:21.475Z,3428
2017-08-20T11:11:22.906Z,3416
2017-08-20T11:12:24.339Z,3396
2017-08-20T11:13:25.777Z,3032
2017-08-20T11:14:27.271Z,2884
2017-08-20T11:15:28.699Z,3160
2017-08-20T11:16:30.145Z,2924
2017-08-20T11:17:31.583Z,2596
2017-08-20T11:18:33.019Z,2304
2017-08-20T11:19:34.458Z,2068
2017-08-20T11:20:35.892Z,2140
2017-08-20T11:21:37.329Z,2456
2017-08-20T11:22:38.758Z,2580
2017-08-20T11:23:40.228Z,2664
2017-08-20T11:24:41.663Z,2784
2017-08-20T11:25:43.666Z,2916
2017-08-20T11:26:45.101Z,2828
2017-08-20T11:27:46.596Z,2740
2017-08-20T11:28:48.075Z,2900
2017-08-20T11:29:49.544Z,2840
2017-08-20T11:30:51.134Z,3352
2017-08-20T11:31:52.552Z,3556
2017-08-20T11:32:53.990Z,3628
2017-08-20T11:33:55.427Z,3544
2017-08-20T11:34:56.854Z,3480
2017-08-20T11:35:58.301Z,3276
2017-08-20T11:36:59.737Z,3060
2017-08-20T11:38:01.162Z,2216
2017-08-20T11:39:02.608Z,2492
2017-08-20T11:40:04.040Z,3116
2017-08-20T11:41:05.490Z,2860
2017-08-20T11:42:06.916Z,1912
2017-08-20T11:43:08.354Z,1896
2017-08-20T11:44:12.743Z,1804
2017-08-20T11:45:14.833Z,1900
2017-08-20T11:46:16.265Z,2072
2017-08-20T11:47:17.705Z,1836
2017-08-20T11:48:19.136Z,1792
2017-08-20T11:49:20.572Z,1616
2017-08-20T11:50:22.002Z,1424
2017-08-20T11:51:25.781Z,1472
2017-08-20T11:52:27.213Z,1520
2017-08-20T11:53:28.650Z,1564
2017-08-20T11:54:30.084Z,1556
2017-08-20T11:55:31.521Z,1580
2017-08-20T11:56:32.952Z,1712
2017-08-20T11:57:34.402Z,1856
2017-08-20T11:58:35.827Z,2008
2017-08-20T11:59:37.261Z,2252
2017-08-20T12:00:38.729Z,2456
2017-08-20T12:01:40.165Z,2564
2017-08-20T12:02:41.603Z,2652
2017-08-20T12:03:43.042Z,2620
2017-08-20T12:04:44.470Z,2464
2017-08-20T12:05:45.893Z,2356
2017-08-20T12:06:47.329Z,2296
2017-08-20T12:07:48.763Z,2336
2017-08-20T12:08:50.206Z,2304
2017-08-20T12:09:51.634Z,2212
2017-08-20T12:10:53.074Z,2088
2017-08-20T12:11:54.518Z,1924
2017-08-20T12:12:55.956Z,1752
2017-08-20T12:13:57.387Z,1628
2017-08-20T12:14:58.824Z,1600
2017-08-20T12:16:00.265Z,1744
2017-08-20T12:17:01.703Z,1976
2017-08-20T12:18:03.134Z,2284
2017-08-20T12:19:04.576Z,2744
2017-08-20T12:20:06.003Z,3196
2017-08-20T12:21:07.433Z,3340
2017-08-20T12:22:08.865Z,3288
2017-08-20T12:23:10.312Z,3152
2017-08-20T12:24:11.737Z,3024
2017-08-20T12:25:13.180Z,2792
2017-08-20T12:26:14.612Z,2404
2017-08-20T12:27:16.050Z,2336
2017-08-20T12:28:17.488Z,2136
2017-08-20T12:29:19.256Z,1812
2017-08-20T12:30:20.908Z,1408
2017-08-20T12:31:22.471Z,1136
2017-08-20T12:32:24.343Z,1036
2017-08-20T12:33:25.781Z,924
2017-08-20T12:34:27.212Z,888
2017-08-20T12:35:28.643Z,824
2017-08-20T12:36:30.072Z,748
2017-08-20T12:37:31.511Z,676
2017-08-20T12:38:32.943Z,696
2017-08-20T12:39:34.373Z,648
2017-08-20T12:40:35.801Z,656
2017-08-20T12:41:37.232Z,688
2017-08-20T12:42:38.727Z,740
2017-08-20T12:43:40.165Z,812
2017-08-20T12:44:41.589Z,904
2017-08-20T12:45:43.021Z,940
2017-08-20T12:46:44.455Z,952
2017-08-20T12:47:45.882Z,940
2017-08-20T12:48:47.316Z,884
2017-08-20T12:49:48.753Z,896
2017-08-20T12:50:50.182Z,884
2017-08-20T12:51:51.617Z,872
2017-08-20T12:52:53.050Z,864
2017-08-20T12:53:54.482Z,872
2017-08-20T12:54:55.915Z,900
2017-08-20T12:55:57.341Z,900
2017-08-20T12:56:58.777Z,884
2017-08-20T12:58:00.233Z,1008
2017-08-20T12:59:01.676Z,1212
2017-08-20T13:00:03.116Z,1500
2017-08-20T13:01:04.543Z,1800
2017-08-20T13:02:05.978Z,2176
2017-08-20T13:03:07.424Z,2416
2017-08-20T13:04:08.858Z,2708
2017-08-20T13:05:10.294Z,3332
2017-08-20T13:06:11.715Z,4216
2017-08-20T13:07:13.144Z,4216
2017-08-20T13:08:14.575Z,4580
2017-08-20T13:09:16.037Z,5332
2017-08-20T13:10:17.465Z,5440
2017-08-20T13:11:18.899Z,5112
2017-08-20T13:12:20.341Z,5032
2017-08-20T13:13:21.780Z,5128
2017-08-20T13:14:23.218Z,5144
2017-08-20T13:15:24.660Z,5232
2017-08-20T13:16:26.095Z,4752
2017-08-20T13:17:27.530Z,4420
2017-08-20T13:18:29.002Z,4336
2017-08-20T13:19:30.410Z,3664
2017-08-20T13:20:31.843Z,3356
2017-08-20T13:21:33.277Z,3392
2017-08-20T13:22:35.671Z,3304
2017-08-20T13:23:37.101Z,3376
2017-08-20T13:24:38.531Z,3052
2017-08-20T13:25:39.967Z,2716
2017-08-20T13:26:41.396Z,2860
2017-08-20T13:27:42.832Z,3432
2017-08-20T13:28:44.266Z,4004
2017-08-20T13:29:45.692Z,3996
2017-08-20T13:30:47.135Z,4732
2017-08-20T13:31:48.566Z,4088
2017-08-20T13:32:49.999Z,3464
2017-08-20T13:33:51.432Z,3008
2017-08-20T13:34:52.890Z,2680
2017-08-20T13:35:54.330Z,2144
2017-08-20T13:36:55.764Z,1780
2017-08-20T13:37:57.202Z,1868
2017-08-20T13:38:58.626Z,1764
2017-08-20T13:40:00.058Z,1832
2017-08-20T13:41:01.493Z,1672
2017-08-20T13:42:02.935Z,1588
2017-08-20T13:43:04.871Z,1456
2017-08-20T13:44:06.308Z,1260
2017-08-20T13:45:07.733Z,1060
2017-08-20T13:46:09.173Z,1040
2017-08-20T13:47:10.612Z,1000
2017-08-20T13:48:12.042Z,980
2017-08-20T13:49:13.465Z,924
2017-08-20T13:50:14.900Z,780
2017-08-20T13:51:16.333Z,592
2017-08-20T13:52:17.766Z,504
2017-08-20T13:53:19.204Z,436
2017-08-20T13:54:20.647Z,344
2017-08-20T13:55:22.073Z,276
2017-08-20T13:56:23.507Z,216
2017-08-20T13:57:24.931Z,156
2017-08-20T13:58:26.359Z,120
2017-08-20T13:59:27.791Z,112
2017-08-20T14:00:29.224Z,124
2017-08-20T14:01:30.663Z,136
2017-08-20T14:02:32.119Z,128
2017-08-20T14:03:33.525Z,124
2017-08-20T14:04:34.952Z,152
2017-08-20T14:05:36.383Z,168
2017-08-20T14:06:37.821Z,188
2017-08-20T14:07:39.250Z,260
2017-08-20T14:08:40.681Z,332
2017-08-20T14:09:42.111Z,316
2017-08-20T14:10:43.543Z,372
2017-08-20T14:11:44.983Z,480
2017-08-20T14:12:46.418Z,636